createdAt,value
2018-11-28T00:02:17.211Z,25.33
2018-11-28T00:04:47.742Z,23.07
2018-11-28T00:07:17.332Z,23.17
2018-11-28T00:09:46.718Z,24.40
2018-11-28T00:12:16.788Z,28.13
2018-11-28T00:14:46.694Z,27.10
2018-11-28T00:17:17.336Z,25.30
2018-11-28T00:19:48.877Z,28.67
2018-11-28T00:22:18.257Z,27.43
2018-11-28T00:24:51.052Z,25.33
2018-11-28T00:27:21.995Z,27.97
2018-11-28T00:29:52.856Z,24.40
2018-11-28T00:32:23.805Z,25.60
2018-11-28T00:34:53.937Z,23.60
2018-11-28T00:37:23.330Z,23.37
2018-11-28T00:39:54.935Z,22.57
2018-11-28T00:42:31.277Z,23.07
2018-11-28T00:45:02.077Z,23.20
2018-11-28T00:47:32.844Z,23.40
2018-11-28T00:50:02.897Z,23.77
2018-11-28T00:52:35.094Z,22.87
2018-11-28T00:55:08.986Z,24.10
2018-11-28T00:57:41.165Z,22.30
2018-11-28T01:00:16.420Z,20.87
2018-11-28T01:02:48.448Z,24.07
2018-11-28T01:05:18.137Z,26.70
2018-11-28T01:07:53.821Z,27.50
2018-11-28T01:10:26.160Z,25.37
2018-11-28T01:12:56.894Z,23.80
2018-11-28T01:15:26.992Z,24.17
2018-11-28T01:17:58.165Z,22.27
2018-11-28T01:20:29.112Z,21.90
2018-11-28T01:23:10.050Z,19.30
2018-11-28T01:25:42.952Z,22.90
2018-11-28T01:28:16.117Z,29.70
2018-11-28T01:30:50.098Z,28.47
2018-11-28T01:33:21.108Z,26.37
2018-11-28T01:35:53.252Z,25.57
2018-11-28T01:38:24.246Z,24.97
2018-11-28T01:40:55.169Z,23.27
2018-11-28T01:43:27.253Z,22.97
2018-11-28T01:45:59.236Z,21.50
2018-11-28T01:48:29.765Z,21.57
2018-11-28T01:51:00.361Z,21.20
2018-11-28T01:53:30.588Z,23.13
2018-11-28T01:56:01.084Z,22.37
2018-11-28T01:58:30.445Z,22.10
2018-11-28T02:01:02.825Z,22.27
2018-11-28T02:03:36.071Z,23.90
2018-11-28T02:06:06.300Z,23.40
2018-11-28T02:08:40.211Z,23.53
2018-11-28T02:11:13.317Z,24.93
2018-11-28T02:13:44.596Z,22.70
2018-11-28T02:16:14.468Z,23.87
2018-11-28T02:18:45.357Z,24.70
2018-11-28T02:21:16.457Z,23.23
2018-11-28T02:23:47.248Z,23.23
2018-11-28T02:26:21.151Z,23.03
2018-11-28T02:28:54.370Z,23.03
2018-11-28T02:31:24.409Z,23.27
2018-11-28T02:33:58.485Z,25.60
2018-11-28T02:36:30.269Z,21.57
2018-11-28T02:39:03.533Z,22.60
2018-11-28T02:41:34.489Z,20.70
2018-11-28T02:44:06.403Z,21.83
2018-11-28T02:46:38.420Z,23.07
2018-11-28T02:49:09.506Z,21.57
2018-11-28T02:51:39.478Z,23.90
2018-11-28T02:54:13.198Z,22.23
2018-11-28T02:56:43.401Z,21.73
2018-11-28T02:59:17.686Z,19.43
2018-11-28T03:01:48.190Z,22.40
2018-11-28T03:04:17.693Z,22.43
2018-11-28T03:06:49.357Z,20.27
2018-11-28T03:09:20.027Z,21.70
2018-11-28T03:11:50.810Z,21.10
2018-11-28T03:14:20.946Z,21.30
2018-11-28T03:16:51.590Z,19.10
2018-11-28T03:19:21.717Z,20.70
2018-11-28T03:21:52.681Z,21.80
2018-11-28T03:24:23.681Z,21.40
2018-11-28T03:26:54.325Z,20.30
2018-11-28T03:29:25.171Z,20.87
2018-11-28T03:31:55.827Z,19.43
2018-11-28T03:34:26.358Z,21.13
2018-11-28T03:37:05.672Z,19.87
2018-11-28T03:39:37.589Z,18.13
2018-11-28T03:42:13.557Z,23.03
2018-11-28T03:44:44.613Z,22.80
2018-11-28T03:47:14.900Z,22.40
2018-11-28T03:49:45.870Z,20.90
2018-11-28T03:52:16.858Z,19.63
2018-11-28T03:54:47.577Z,21.17
2018-11-28T03:57:17.761Z,21.17
2018-11-28T03:59:48.653Z,20.70
2018-11-28T04:02:18.054Z,21.57
2018-11-28T04:04:52.576Z,19.87
2018-11-28T04:07:31.706Z,20.17
2018-11-28T04:10:03.253Z,21.10
2018-11-28T04:12:32.749Z,22.07
2018-11-28T04:15:03.887Z,20.30
2018-11-28T04:17:34.870Z,19.63
2018-11-28T04:20:06.938Z,19.30
2018-11-28T04:22:36.998Z,18.00
2018-11-28T04:25:08.069Z,17.97
2018-11-28T04:27:40.684Z,20.90
2018-11-28T04:30:17.779Z,19.40
2018-11-28T04:32:48.545Z,18.43
2018-11-28T04:35:18.090Z,17.73
2018-11-28T04:37:48.959Z,18.50
2018-11-28T04:40:19.310Z,19.13
2018-11-28T04:42:50.321Z,17.93
2018-11-28T04:45:25.345Z,18.23
2018-11-28T04:47:55.794Z,19.40
2018-11-28T04:50:29.867Z,17.87
2018-11-28T04:53:06.605Z,17.00
2018-11-28T04:55:36.161Z,21.10
2018-11-28T04:58:07.174Z,19.30
2018-11-28T05:00:38.393Z,17.27
2018-11-28T05:03:08.456Z,17.00
2018-11-28T05:05:39.153Z,17.80
2018-11-28T05:08:14.117Z,17.20
2018-11-28T05:10:46.241Z,16.70
2018-11-28T05:13:17.923Z,15.50
2018-11-28T05:15:48.161Z,19.30
2018-11-28T05:18:17.743Z,17.40
2018-11-28T05:20:53.996Z,18.10
2018-11-28T05:23:28.422Z,16.37
2018-11-28T05:25:59.245Z,19.00
2018-11-28T05:28:29.177Z,17.10
2018-11-28T05:31:01.201Z,19.50
2018-11-28T05:33:31.281Z,17.97
2018-11-28T05:36:01.243Z,18.00
2018-11-28T05:38:31.338Z,17.83
2018-11-28T05:41:03.327Z,17.77
2018-11-28T05:43:33.104Z,16.43
2018-11-28T05:46:10.093Z,16.67
2018-11-28T05:48:44.011Z,17.03
2018-11-28T05:51:14.311Z,16.27
2018-11-28T05:53:48.339Z,16.77
2018-11-28T05:56:18.045Z,17.63
2018-11-28T05:58:50.119Z,15.13
2018-11-28T06:01:20.624Z,17.43
2018-11-28T06:03:51.274Z,16.33
2018-11-28T06:06:21.521Z,18.13
2018-11-28T06:08:53.318Z,15.00
2018-11-28T06:11:23.797Z,17.20
2018-11-28T06:13:54.289Z,15.23
2018-11-28T06:16:27.448Z,15.07
2018-11-28T06:18:58.478Z,16.30
2018-11-28T06:21:28.609Z,16.13
2018-11-28T06:23:59.561Z,15.30
2018-11-28T06:26:30.496Z,15.30
2018-11-28T06:29:00.500Z,14.60
2018-11-28T06:31:31.572Z,15.83
2018-11-28T06:34:01.598Z,15.30
2018-11-28T06:36:32.624Z,15.17
2018-11-28T06:39:02.581Z,13.60
2018-11-28T06:41:33.421Z,15.10
2018-11-28T06:44:04.690Z,14.60
2018-11-28T06:46:35.608Z,14.47
2018-11-28T06:49:05.721Z,19.73
2018-11-28T06:51:36.688Z,17.73
2018-11-28T06:54:06.483Z,14.80
2018-11-28T06:56:37.620Z,14.90
2018-11-28T06:59:08.793Z,12.97
2018-11-28T07:01:39.710Z,13.30
2018-11-28T07:04:09.739Z,13.03
2018-11-28T07:06:40.906Z,14.53
2018-11-28T07:09:11.476Z,12.33
2018-11-28T07:11:45.460Z,12.57
2018-11-28T07:14:16.640Z,11.40
2018-11-28T07:16:48.200Z,11.63
2018-11-28T07:19:17.950Z,10.63
2018-11-28T07:21:48.558Z,12.17
2018-11-28T07:24:18.016Z,11.13
2018-11-28T07:26:49.717Z,12.27
2018-11-28T07:29:21.691Z,12.90
2018-11-28T07:31:53.779Z,12.03
2018-11-28T07:34:24.720Z,13.23
2018-11-28T07:37:00.671Z,15.70
2018-11-28T07:39:30.686Z,16.73
2018-11-28T07:42:02.518Z,15.90
2018-11-28T07:44:33.300Z,13.00
2018-11-28T07:47:03.981Z,14.03
2018-11-28T07:49:34.641Z,11.40
2018-11-28T07:52:04.982Z,11.70
2018-11-28T07:54:35.831Z,12.10
2018-11-28T07:57:06.802Z,10.47
2018-11-28T07:59:37.501Z,11.47
2018-11-28T08:02:07.797Z,10.30
2018-11-28T08:04:47.938Z,12.27
2018-11-28T08:07:17.993Z,10.97
2018-11-28T08:09:47.880Z,9.97
2018-11-28T08:12:21.778Z,11.40
2018-11-28T08:14:52.972Z,10.33
2018-11-28T08:17:25.143Z,10.00
2018-11-28T08:19:56.703Z,10.33
2018-11-28T08:22:31.931Z,9.90
2018-11-28T08:25:03.067Z,11.93
2018-11-28T08:27:38.938Z,11.90
2018-11-28T08:30:17.810Z,11.80
2018-11-28T08:32:52.071Z,12.70
2018-11-28T08:35:21.930Z,10.40
2018-11-28T08:37:56.833Z,10.13
2018-11-28T08:40:28.071Z,10.47
2018-11-28T08:42:58.555Z,9.03
2018-11-28T08:45:27.965Z,10.47
2018-11-28T08:47:59.536Z,8.47
2018-11-28T08:50:30.869Z,8.90
2018-11-28T08:53:03.163Z,9.63
2018-11-28T08:55:34.193Z,9.63
2018-11-28T08:58:05.068Z,10.77
2018-11-28T09:00:36.211Z,10.00
2018-11-28T09:03:06.627Z,10.30
2018-11-28T09:05:38.170Z,10.60
2018-11-28T09:08:15.955Z,9.50
2018-11-28T09:10:50.147Z,8.43
2018-11-28T09:13:21.244Z,10.37
2018-11-28T09:15:51.365Z,12.13
2018-11-28T09:18:24.108Z,9.30
2018-11-28T09:20:58.089Z,10.00
2018-11-28T09:23:29.832Z,8.37
2018-11-28T09:26:00.358Z,7.33
2018-11-28T09:28:41.400Z,6.87
2018-11-28T09:31:22.690Z,9.93
2018-11-28T09:34:09.977Z,9.20
2018-11-28T09:36:56.702Z,8.67
2018-11-28T09:39:41.823Z,8.70
2018-11-28T09:42:25.915Z,8.63
2018-11-28T09:45:12.161Z,8.43
2018-11-28T09:47:57.826Z,8.30
2018-11-28T09:50:44.266Z,7.07
2018-11-28T09:53:19.596Z,7.83
2018-11-28T09:55:50.293Z,6.77
2018-11-28T09:58:21.511Z,7.67
2018-11-28T10:00:51.410Z,7.23
2018-11-28T10:03:21.452Z,7.07
2018-11-28T10:05:53.559Z,15.57
2018-11-28T10:08:24.623Z,17.07
2018-11-28T10:10:54.540Z,10.30
2018-11-28T10:13:35.032Z,8.50
2018-11-28T10:16:18.876Z,6.80
2018-11-28T10:18:54.086Z,5.87
2018-11-28T10:21:24.556Z,5.70
2018-11-28T10:23:55.522Z,5.93
2018-11-28T10:26:27.530Z,6.50
2018-11-28T10:28:57.624Z,7.10
2018-11-28T10:31:28.529Z,5.27
2018-11-28T10:33:58.562Z,3.90
2018-11-28T10:36:30.196Z,4.67
2018-11-28T10:39:08.917Z,3.83
2018-11-28T10:41:39.802Z,13.13
2018-11-28T10:44:10.719Z,8.83
2018-11-28T10:46:43.458Z,12.60
2018-11-28T10:49:14.656Z,9.30
2018-11-28T10:51:50.200Z,5.10
2018-11-28T10:54:15.627Z,6.00
2018-11-28T10:56:46.774Z,5.87
2018-11-28T10:59:16.679Z,5.90
2018-11-28T11:01:56.806Z,5.17
2018-11-28T11:04:31.712Z,3.93
2018-11-28T11:07:09.713Z,4.33
2018-11-28T11:11:51.664Z,4.27
2018-11-28T11:14:26.962Z,4.00
2018-11-28T11:16:57.635Z,4.80
2018-11-28T11:19:27.756Z,5.60
2018-11-28T11:21:59.698Z,3.73
2018-11-28T11:24:33.354Z,4.43
2018-11-28T11:27:03.925Z,5.97
2018-11-28T11:29:35.078Z,6.17
2018-11-28T11:32:06.128Z,8.00
2018-11-28T11:34:36.817Z,8.83
2018-11-28T11:37:07.692Z,7.93
2018-11-28T11:39:40.914Z,5.10
2018-11-28T11:42:12.011Z,4.43
2018-11-28T11:44:41.920Z,4.50
2018-11-28T11:47:13.024Z,5.20
2018-11-28T11:49:43.086Z,11.67
2018-11-28T11:52:16.829Z,11.07
2018-11-28T11:54:47.841Z,7.27
2018-11-28T11:57:18.065Z,7.87
2018-11-28T11:59:49.053Z,13.33
2018-11-28T12:02:18.593Z,11.33
2018-11-28T12:04:49.942Z,5.50
2018-11-28T12:07:22.365Z,3.30
2018-11-28T12:09:52.014Z,3.37
2018-11-28T12:12:28.331Z,3.90
2018-11-28T12:15:02.083Z,3.00
2018-11-28T12:17:33.823Z,3.63
2018-11-28T12:20:08.876Z,2.60
2018-11-28T12:22:38.280Z,2.97
2018-11-28T12:25:12.404Z,2.23
2018-11-28T12:27:49.621Z,2.37
2018-11-28T12:30:19.915Z,2.50
2018-11-28T12:32:53.047Z,2.93
2018-11-28T12:35:24.170Z,2.67
2018-11-28T12:37:54.068Z,3.33
2018-11-28T12:40:31.614Z,3.17
2018-11-28T12:43:01.545Z,3.03
2018-11-28T12:45:32.206Z,3.17
2018-11-28T12:48:07.697Z,4.50
2018-11-28T12:50:43.397Z,5.20
2018-11-28T12:53:14.701Z,6.43
2018-11-28T12:55:50.830Z,5.53
2018-11-28T12:58:25.968Z,4.20
2018-11-28T13:00:57.247Z,5.33
2018-11-28T13:03:27.592Z,5.27
2018-11-28T13:08:59.069Z,3.97
2018-11-28T13:11:35.255Z,7.37
2018-11-28T13:14:06.637Z,4.73
2018-11-28T13:16:36.311Z,5.57
2018-11-28T13:19:11.089Z,8.90
2018-11-28T13:21:44.246Z,8.00
2018-11-28T13:24:17.145Z,7.58
2018-11-28T13:26:51.259Z,5.00
2018-11-28T13:29:22.182Z,4.77
2018-11-28T13:31:53.234Z,5.13
2018-11-28T13:34:28.096Z,7.03
2018-11-28T13:37:07.640Z,6.90
2018-11-28T13:39:38.425Z,4.27
2018-11-28T13:42:09.975Z,4.83
2018-11-28T13:44:41.331Z,7.03
2018-11-28T13:47:16.478Z,3.67
2018-11-28T13:49:46.265Z,3.80
2018-11-28T13:52:17.334Z,2.70
2018-11-28T13:55:37.341Z,2.73
2018-11-28T13:57:18.660Z,2.50
2018-11-28T13:59:48.379Z,2.70
2018-11-28T14:02:25.186Z,2.23
2018-11-28T14:04:55.612Z,3.17
2018-11-28T14:07:27.455Z,4.57
2018-11-28T14:09:59.563Z,4.00
2018-11-28T14:12:30.628Z,3.10
2018-11-28T14:15:00.724Z,5.27
2018-11-28T14:17:31.698Z,4.80
2018-11-28T14:20:01.545Z,4.43
2018-11-28T14:22:35.466Z,4.00
2018-11-28T14:25:06.096Z,5.43
2018-11-28T14:27:36.575Z,4.97
2018-11-28T14:30:22.166Z,3.67
2018-11-28T14:32:54.665Z,3.53
2018-11-28T14:35:26.700Z,2.53
2018-11-28T14:37:57.720Z,3.33
2018-11-28T14:40:28.032Z,3.20
2018-11-28T14:42:59.627Z,2.20
2018-11-28T14:45:32.372Z,3.30
2018-11-28T14:48:03.013Z,4.00
2018-11-28T14:50:36.457Z,4.67
2018-11-28T14:53:06.790Z,3.57
2018-11-28T14:55:39.811Z,2.90
2018-11-28T14:58:12.969Z,4.63
2018-11-28T15:00:44.192Z,3.77
2018-11-28T15:03:21.256Z,3.77
2018-11-28T15:06:10.988Z,3.10
2018-11-28T15:08:42.789Z,2.97
2018-11-28T15:11:16.330Z,2.60
2018-11-28T15:13:52.688Z,1.93
2018-11-28T15:16:33.839Z,3.60
2018-11-28T15:19:03.990Z,3.07
2018-11-28T15:21:35.292Z,4.00
2018-11-28T15:24:06.076Z,4.20
2018-11-28T15:26:36.021Z,3.93
2018-11-28T15:29:06.583Z,3.73
2018-11-28T15:31:37.603Z,6.17
2018-11-28T15:34:13.809Z,4.60
2018-11-28T15:36:44.045Z,4.50
2018-11-28T15:39:15.565Z,5.40
2018-11-28T15:41:54.684Z,5.30
2018-11-28T15:44:25.506Z,4.70
2018-11-28T15:46:59.153Z,7.80
2018-11-28T15:49:29.536Z,9.20
2018-11-28T15:52:07.232Z,12.57
2018-11-28T15:54:37.260Z,11.60
2018-11-28T15:57:07.425Z,10.60
2018-11-28T15:59:40.181Z,19.90
2018-11-28T16:02:12.045Z,17.90
2018-11-28T16:04:42.181Z,13.40
2018-11-28T16:07:13.115Z,12.07
2018-11-28T16:10:48.890Z,19.40
2018-11-28T16:13:19.121Z,18.10
2018-11-28T16:15:54.580Z,17.60
2018-11-28T16:18:33.099Z,16.77
2018-11-28T16:21:05.906Z,13.70
2018-11-28T16:23:43.047Z,14.57
2018-11-28T16:26:17.990Z,13.90
2018-11-28T16:28:49.145Z,10.83
2018-11-28T16:31:19.395Z,9.93
2018-11-28T16:33:50.588Z,9.17
2018-11-28T16:36:22.385Z,7.47
2018-11-28T16:38:54.152Z,7.00
2018-11-28T16:41:25.477Z,6.17
2018-11-28T16:43:56.921Z,7.00
2018-11-28T16:46:35.283Z,6.33
2018-11-28T16:49:06.505Z,6.70
2018-11-28T16:51:39.556Z,6.50
2018-11-28T16:54:14.870Z,7.40
2018-11-28T16:56:50.617Z,6.80
2018-11-28T16:59:23.525Z,7.53
2018-11-28T17:01:59.705Z,6.60
2018-11-28T17:04:33.143Z,7.77
2018-11-28T17:07:09.237Z,8.20
2018-11-28T17:09:43.037Z,8.47
2018-11-28T17:12:14.593Z,8.47
2018-11-28T17:14:44.377Z,8.67
2018-11-28T17:17:15.506Z,9.97
2018-11-28T17:19:45.313Z,10.17
2018-11-28T17:22:16.244Z,8.67
2018-11-28T17:24:47.768Z,8.90
2018-11-28T17:27:19.260Z,9.60
2018-11-28T17:29:52.827Z,10.10
2018-11-28T17:32:22.560Z,11.73
2018-11-28T17:34:56.778Z,11.63
2018-11-28T17:37:29.788Z,11.27
2018-11-28T17:40:17.374Z,9.87
2018-11-28T17:42:49.889Z,10.10
2018-11-28T17:45:20.122Z,10.43
2018-11-28T17:47:49.948Z,10.47
2018-11-28T17:50:21.429Z,10.37
2018-11-28T17:52:56.342Z,9.73
2018-11-28T17:55:29.410Z,10.37
2018-11-28T17:58:01.633Z,9.27
2018-11-28T18:00:31.532Z,10.37
2018-11-28T18:03:02.591Z,10.57
2018-11-28T18:05:32.504Z,10.27
2018-11-28T18:08:06.567Z,10.23
2018-11-28T18:10:36.784Z,10.13
2018-11-28T18:13:12.482Z,9.60
2018-11-28T18:15:54.930Z,9.93
2018-11-28T18:18:26.419Z,9.67
2018-11-28T18:20:55.805Z,10.90
2018-11-28T18:23:27.081Z,10.67
2018-11-28T18:25:58.813Z,10.90
2018-11-28T18:28:29.738Z,10.10
2018-11-28T18:31:00.694Z,10.67
2018-11-28T18:33:31.421Z,9.67
2018-11-28T18:36:06.561Z,12.03
2018-11-28T18:38:44.452Z,11.03
2018-11-28T18:41:19.480Z,11.00
2018-11-28T18:43:53.578Z,8.43
2018-11-28T18:46:25.383Z,9.30
2018-11-28T18:48:59.474Z,9.87
2018-11-28T18:51:29.693Z,10.37
2018-11-28T18:54:02.665Z,11.10
2018-11-28T18:56:39.687Z,10.70
2018-11-28T18:59:09.662Z,11.13
2018-11-28T19:01:48.404Z,13.70
2018-11-28T19:04:15.494Z,11.47
2018-11-28T19:06:45.345Z,13.30
2018-11-28T19:09:20.172Z,14.57
2018-11-28T19:11:56.177Z,17.10
2018-11-28T19:14:28.100Z,19.33
2018-11-28T19:16:59.780Z,14.33
2018-11-28T19:19:29.561Z,13.23
2018-11-28T19:22:06.861Z,11.37
2018-11-28T19:24:39.941Z,11.10
2018-11-28T19:27:10.370Z,9.20
2018-11-28T19:29:41.173Z,11.80
2018-11-28T19:32:15.710Z,11.63
2018-11-28T19:34:45.171Z,11.27
2018-11-28T19:37:16.918Z,12.50
2018-11-28T19:39:47.092Z,10.70
2018-11-28T19:42:18.001Z,10.03
2018-11-28T19:44:48.053Z,11.90
2018-11-28T19:47:19.105Z,12.13
2018-11-28T19:49:50.136Z,12.07
2018-11-28T19:52:19.646Z,11.43
2018-11-28T19:54:51.066Z,11.33
2018-11-28T19:57:22.365Z,11.43
2018-11-28T19:59:53.441Z,11.50
2018-11-28T20:02:25.213Z,10.53
2018-11-28T20:04:58.341Z,12.10
2018-11-28T20:07:28.307Z,11.20
2018-11-28T20:09:58.259Z,11.17
2018-11-28T20:12:28.856Z,10.60
2018-11-28T20:15:02.249Z,10.73
2018-11-28T20:17:33.731Z,11.60
2018-11-28T20:20:05.973Z,11.03
2018-11-28T20:22:46.648Z,9.57
2018-11-28T20:25:22.943Z,10.90
2018-11-28T20:27:57.168Z,11.37
2018-11-28T20:30:33.722Z,10.37
2018-11-28T20:33:03.609Z,10.90
2018-11-28T20:35:34.391Z,11.83
2018-11-28T20:38:04.578Z,9.80
2018-11-28T20:40:35.444Z,10.43
2018-11-28T20:43:06.718Z,11.20
2018-11-28T20:45:36.725Z,11.77
2018-11-28T20:48:07.518Z,10.60
2018-11-28T20:50:38.593Z,11.33
2018-11-28T20:53:13.296Z,10.97
2018-11-28T20:55:44.004Z,10.60
2018-11-28T20:58:17.320Z,13.53
2018-11-28T21:00:54.240Z,10.73
2018-11-28T21:03:26.429Z,13.97
2018-11-28T21:05:58.240Z,13.20
2018-11-28T21:17:23.369Z,11.40
2018-11-28T21:19:55.405Z,12.40
2018-11-28T21:22:25.511Z,12.00
2018-11-28T21:24:56.451Z,12.87
2018-11-28T21:27:26.568Z,11.80
2018-11-28T21:29:57.566Z,10.40
2018-11-28T21:32:28.807Z,13.00
2018-11-28T21:34:58.585Z,11.90
2018-11-28T21:37:29.752Z,11.60
2018-11-28T21:39:59.641Z,12.60
2018-11-28T21:42:30.373Z,12.73
2018-11-28T21:45:01.630Z,11.97
2018-11-28T21:47:31.469Z,11.97
2018-11-28T21:50:03.040Z,11.07
2018-11-28T21:52:37.614Z,13.23
2018-11-28T21:55:17.131Z,11.70
2018-11-28T21:57:49.753Z,12.37
2018-11-28T22:00:26.279Z,12.13
2018-11-28T22:02:59.461Z,12.23
2018-11-28T22:05:30.934Z,12.97
2018-11-28T22:08:01.694Z,13.70
2018-11-28T22:10:32.720Z,13.23
2018-11-28T22:13:03.606Z,11.87
2018-11-28T22:15:34.334Z,12.60
2018-11-28T22:18:04.862Z,13.20
2018-11-28T22:20:35.565Z,15.40
2018-11-28T22:23:05.748Z,13.83
2018-11-28T22:25:36.625Z,12.13
2018-11-28T22:28:07.412Z,15.53
2018-11-28T22:30:37.768Z,12.73
2018-11-28T22:33:08.057Z,14.20
2018-11-28T22:35:38.941Z,14.03
2018-11-28T22:38:09.420Z,13.43
2018-11-28T22:40:39.837Z,13.27
2018-11-28T22:43:10.685Z,13.40
2018-11-28T22:45:40.965Z,14.57
2018-11-28T22:48:11.961Z,15.70
2018-11-28T22:50:42.962Z,14.87
2018-11-28T22:53:12.901Z,14.90
2018-11-28T22:55:45.408Z,15.07
2018-11-28T22:58:14.796Z,13.97
2018-11-28T23:00:50.962Z,15.90
2018-11-28T23:03:23.001Z,15.00
2018-11-28T23:05:55.210Z,15.10
2018-11-28T23:08:25.944Z,13.93
2018-11-28T23:10:56.877Z,16.10
2018-11-28T23:13:33.840Z,14.83
2018-11-28T23:16:07.732Z,16.43
2018-11-28T23:18:37.889Z,17.20
2018-11-28T23:21:09.068Z,17.00
2018-11-28T23:23:40.178Z,15.10
2018-11-28T23:26:10.956Z,14.87
2018-11-28T23:28:41.051Z,16.60
2018-11-28T23:31:12.553Z,17.27
2018-11-28T23:33:42.014Z,17.20
2018-11-28T23:36:13.160Z,18.53
2018-11-28T23:38:43.060Z,18.50
2018-11-28T23:41:13.909Z,18.27
2018-11-28T23:43:44.088Z,18.23
2018-11-28T23:46:17.913Z,17.93
2018-11-28T23:49:03.029Z,17.67
2018-11-28T23:51:32.410Z,17.10
2018-11-28T23:54:02.249Z,17.80
2018-11-28T23:56:33.188Z,17.23
2018-11-28T23:59:03.271Z,17.57
